createdAt,value
2019-06-20T00:01:04.292Z,19.40
2019-06-20T00:03:34.380Z,22.93
2019-06-20T00:06:03.259Z,23.37
2019-06-20T00:08:32.315Z,23.57
2019-06-20T00:11:01.267Z,24.40
2019-06-20T00:13:30.380Z,24.70
2019-06-20T00:15:59.064Z,25.00
2019-06-20T00:18:28.520Z,29.53
2019-06-20T00:20:58.064Z,28.93
2019-06-20T00:23:26.968Z,27.10
2019-06-20T00:25:56.708Z,27.37
2019-06-20T00:28:25.643Z,28.37
2019-06-20T00:30:54.665Z,31.57
2019-06-20T00:33:25.026Z,32.33
2019-06-20T00:35:53.878Z,31.87
2019-06-20T00:38:22.843Z,31.80
2019-06-20T00:40:51.822Z,33.20
2019-06-20T00:43:20.760Z,35.40
2019-06-20T00:45:49.790Z,33.13
2019-06-20T00:48:18.673Z,32.43
2019-06-20T00:50:47.935Z,31.67
2019-06-20T00:53:16.817Z,34.47
2019-06-20T00:55:45.696Z,33.90
2019-06-20T00:58:14.973Z,35.07
2019-06-20T01:00:43.986Z,30.87
2019-06-20T01:03:12.879Z,36.67
2019-06-20T01:05:42.283Z,31.80
2019-06-20T01:08:11.200Z,31.47
2019-06-20T01:10:40.867Z,33.27
2019-06-20T01:13:09.733Z,31.73
2019-06-20T01:15:38.709Z,32.83
2019-06-20T01:18:07.654Z,33.33
2019-06-20T01:20:36.670Z,34.87
2019-06-20T01:23:05.571Z,39.20
2019-06-20T01:25:37.210Z,37.97
2019-06-20T01:28:06.056Z,36.77
2019-06-20T01:30:35.004Z,38.57
2019-06-20T01:33:05.732Z,38.03
2019-06-20T01:35:34.619Z,38.97
2019-06-20T01:38:03.482Z,42.70
2019-06-20T01:40:32.573Z,39.43
2019-06-20T01:43:01.661Z,40.03
2019-06-20T01:45:30.524Z,40.23
2019-06-20T01:48:00.155Z,41.10
2019-06-20T01:50:29.054Z,41.37
2019-06-20T01:52:58.626Z,42.83
2019-06-20T01:55:27.469Z,43.63
2019-06-20T01:57:56.553Z,44.50
2019-06-20T02:00:33.059Z,47.27
2019-06-20T02:03:01.973Z,49.70
2019-06-20T02:05:31.465Z,50.40
2019-06-20T02:08:01.421Z,46.43
2019-06-20T02:10:30.410Z,51.43
2019-06-20T02:12:59.298Z,48.67
2019-06-20T02:15:28.579Z,47.50
2019-06-20T02:17:57.575Z,47.87
2019-06-20T02:20:29.949Z,49.53
2019-06-20T02:22:58.798Z,47.97
2019-06-20T02:25:28.901Z,50.57
2019-06-20T02:27:58.151Z,52.27
2019-06-20T02:30:27.136Z,45.93
2019-06-20T02:32:56.956Z,48.20
2019-06-20T02:35:26.504Z,47.27
2019-06-20T02:37:55.463Z,47.53
2019-06-20T02:40:24.331Z,47.87
2019-06-20T02:42:53.573Z,46.13
2019-06-20T02:45:22.718Z,48.90
2019-06-20T02:47:51.926Z,46.57
2019-06-20T02:50:21.525Z,43.30
2019-06-20T02:52:50.512Z,48.50
2019-06-20T02:55:19.376Z,45.03
2019-06-20T02:57:48.283Z,49.23
2019-06-20T03:00:21.596Z,44.97
2019-06-20T03:02:51.079Z,44.27
2019-06-20T03:05:19.872Z,44.40
2019-06-20T03:07:48.765Z,41.97
2019-06-20T03:10:18.340Z,34.60
2019-06-20T03:12:48.095Z,40.03
2019-06-20T03:15:16.955Z,42.60
2019-06-20T03:17:45.883Z,38.20
2019-06-20T03:20:15.049Z,41.27
2019-06-20T03:22:43.996Z,43.47
2019-06-20T03:25:14.863Z,39.77
2019-06-20T03:27:44.439Z,40.43
2019-06-20T03:30:14.655Z,40.13
2019-06-20T03:32:43.615Z,38.00
2019-06-20T03:35:12.615Z,36.70
2019-06-20T03:37:41.509Z,41.80
2019-06-20T03:40:10.380Z,37.27
2019-06-20T03:42:39.409Z,41.77
2019-06-20T03:45:08.299Z,43.50
2019-06-20T03:47:37.844Z,41.80
2019-06-20T03:50:06.730Z,42.70
2019-06-20T03:52:37.007Z,43.87
2019-06-20T03:55:07.399Z,44.30
2019-06-20T03:57:36.328Z,44.20
2019-06-20T04:00:05.688Z,42.03
2019-06-20T04:02:36.214Z,43.00
2019-06-20T04:05:06.800Z,43.57
2019-06-20T04:07:36.629Z,42.27
2019-06-20T04:10:05.606Z,41.67
2019-06-20T04:12:34.479Z,42.67
2019-06-20T04:15:18.000Z,40.57
2019-06-20T04:17:33.271Z,38.80
2019-06-20T04:20:03.653Z,38.30
2019-06-20T04:22:32.891Z,37.27
2019-06-20T04:25:02.014Z,39.87
2019-06-20T04:27:30.917Z,40.70
2019-06-20T04:29:59.926Z,38.97
2019-06-20T04:32:30.031Z,38.70
2019-06-20T04:34:59.507Z,38.80
2019-06-20T04:37:29.395Z,39.60
2019-06-20T04:39:58.462Z,39.40
2019-06-20T04:42:27.720Z,38.00
2019-06-20T04:44:56.563Z,39.97
2019-06-20T04:47:25.542Z,36.60
2019-06-20T04:49:54.542Z,39.27
2019-06-20T04:52:24.365Z,38.27
2019-06-20T04:54:53.286Z,41.20
2019-06-20T04:57:22.131Z,40.50
2019-06-20T04:59:55.301Z,45.37
2019-06-20T05:02:29.301Z,46.80
2019-06-20T05:04:58.696Z,51.77
2019-06-20T05:07:27.675Z,51.30
2019-06-20T05:09:56.542Z,53.87
2019-06-20T05:12:25.540Z,54.30
2019-06-20T05:14:54.479Z,56.33
2019-06-20T05:17:23.937Z,54.17
2019-06-20T05:19:52.942Z,54.13
2019-06-20T05:22:23.252Z,55.47
2019-06-20T05:24:52.127Z,54.60
2019-06-20T05:27:21.525Z,58.83
2019-06-20T05:29:50.575Z,58.53
2019-06-20T05:32:19.989Z,58.33
2019-06-20T05:34:49.401Z,58.10
2019-06-20T05:37:18.992Z,57.13
2019-06-20T05:39:47.953Z,60.47
2019-06-20T05:42:16.989Z,58.83
2019-06-20T05:44:45.961Z,61.47
2019-06-20T05:47:14.958Z,61.97
2019-06-20T05:49:43.829Z,64.53
2019-06-20T05:52:12.679Z,60.53
2019-06-20T05:54:41.688Z,60.10
2019-06-20T05:57:10.583Z,60.67
2019-06-20T05:59:39.554Z,58.27
2019-06-20T06:02:14.485Z,55.67
2019-06-20T06:04:45.712Z,55.87
2019-06-20T06:07:14.644Z,57.87
2019-06-20T06:09:43.673Z,56.50
2019-06-20T06:12:13.499Z,57.37
2019-06-20T06:14:44.016Z,55.67
2019-06-20T06:17:13.689Z,54.87
2019-06-20T06:19:42.531Z,52.50
2019-06-20T06:22:11.421Z,62.87
2019-06-20T06:24:40.361Z,52.10
2019-06-20T06:27:09.193Z,50.97
2019-06-20T06:29:38.338Z,50.33
2019-06-20T06:32:07.180Z,48.70
2019-06-20T06:34:37.872Z,47.03
2019-06-20T06:37:07.430Z,46.17
2019-06-20T06:39:36.319Z,49.77
2019-06-20T06:42:05.244Z,47.70
2019-06-20T06:44:34.367Z,46.83
2019-06-20T06:47:03.558Z,45.17
2019-06-20T06:49:32.400Z,45.50
2019-06-20T06:52:01.498Z,43.47
2019-06-20T06:54:30.565Z,41.20
2019-06-20T06:56:59.489Z,41.77
2019-06-20T06:59:28.354Z,40.93
2019-06-20T07:01:57.253Z,40.90
2019-06-20T07:04:26.144Z,39.90
2019-06-20T07:06:55.094Z,39.87
2019-06-20T07:09:24.112Z,38.50
2019-06-20T07:11:53.514Z,39.20
2019-06-20T07:14:22.529Z,39.13
2019-06-20T07:17:00.260Z,38.87
2019-06-20T07:19:20.212Z,36.03
2019-06-20T07:21:49.161Z,34.57
2019-06-20T07:24:18.082Z,32.13
2019-06-20T07:26:47.028Z,31.47
2019-06-20T07:29:15.965Z,35.10
2019-06-20T07:31:44.917Z,31.87
2019-06-20T07:34:14.912Z,32.87
2019-06-20T07:36:43.842Z,35.83
2019-06-20T07:39:13.783Z,35.40
2019-06-20T07:41:42.769Z,31.93
2019-06-20T07:44:12.151Z,26.63
2019-06-20T07:46:41.682Z,29.87
2019-06-20T07:49:10.621Z,29.63
2019-06-20T07:51:39.639Z,27.50
2019-06-20T07:54:09.818Z,27.07
2019-06-20T07:56:38.776Z,27.80
2019-06-20T07:59:07.696Z,24.83
2019-06-20T08:01:36.606Z,24.20
2019-06-20T08:04:05.627Z,24.03
2019-06-20T08:06:34.470Z,23.50
2019-06-20T08:09:03.389Z,23.30
2019-06-20T08:11:32.892Z,22.13
2019-06-20T08:14:01.841Z,23.87
2019-06-20T08:16:30.904Z,24.07
2019-06-20T08:18:59.875Z,23.00
2019-06-20T08:21:28.766Z,29.57
2019-06-20T08:23:57.701Z,23.37
2019-06-20T08:26:26.569Z,20.63
2019-06-20T08:29:10.382Z,18.17
2019-06-20T08:31:24.309Z,17.10
2019-06-20T08:33:54.036Z,18.87
2019-06-20T08:36:24.155Z,17.00
2019-06-20T08:38:56.946Z,17.27
2019-06-20T08:41:24.256Z,17.70
2019-06-20T08:43:55.360Z,19.27
2019-06-20T08:46:23.934Z,18.83
2019-06-20T08:48:54.919Z,18.53
2019-06-20T08:51:23.425Z,17.70
2019-06-20T08:53:52.415Z,18.93
2019-06-20T08:56:21.398Z,18.27
2019-06-20T08:58:50.476Z,16.60
2019-06-20T09:01:19.431Z,22.50
2019-06-20T09:03:48.359Z,16.13
2019-06-20T09:06:17.196Z,14.63
2019-06-20T09:08:46.216Z,14.27
2019-06-20T09:11:15.242Z,15.03
2019-06-20T09:13:44.270Z,13.53
2019-06-20T09:16:24.259Z,14.27
2019-06-20T09:18:44.299Z,13.47
2019-06-20T09:21:13.241Z,14.80
2019-06-20T09:23:42.160Z,14.87
2019-06-20T09:26:11.586Z,16.33
2019-06-20T09:28:41.593Z,17.50
2019-06-20T09:31:10.456Z,18.90
2019-06-20T09:33:40.327Z,19.70
2019-06-20T09:36:09.177Z,20.30
2019-06-20T09:38:38.045Z,19.00
2019-06-20T09:41:09.584Z,16.57
2019-06-20T09:43:41.168Z,17.13
2019-06-20T09:46:10.109Z,17.23
2019-06-20T09:48:39.479Z,15.57
2019-06-20T09:51:08.724Z,14.50
2019-06-20T09:53:37.584Z,15.37
2019-06-20T09:56:08.017Z,16.60
2019-06-20T09:58:37.676Z,16.57
2019-06-20T10:01:06.721Z,15.93
2019-06-20T10:03:35.860Z,15.03
2019-06-20T10:06:14.111Z,13.30
2019-06-20T10:08:39.072Z,13.07
2019-06-20T10:11:08.516Z,13.47
2019-06-20T10:13:38.119Z,13.57
2019-06-20T10:16:09.354Z,14.23
2019-06-20T10:18:38.456Z,13.87
2019-06-20T10:21:07.440Z,15.27
2019-06-20T10:23:36.464Z,16.90
2019-06-20T10:26:05.311Z,19.17
2019-06-20T10:28:34.776Z,16.07
2019-06-20T10:31:04.788Z,17.43
2019-06-20T10:33:33.681Z,16.80
2019-06-20T10:36:02.632Z,15.47
2019-06-20T10:38:32.240Z,13.57
2019-06-20T10:41:02.036Z,12.00
2019-06-20T10:43:31.475Z,12.33
2019-06-20T10:46:01.579Z,11.47
2019-06-20T10:48:31.153Z,11.63
2019-06-20T10:51:05.134Z,10.77
2019-06-20T10:53:35.772Z,11.90
2019-06-20T10:56:05.595Z,9.43
2019-06-20T10:58:35.472Z,9.17
2019-06-20T11:01:05.003Z,9.40
2019-06-20T11:03:34.158Z,7.70
2019-06-20T11:06:05.835Z,6.07
2019-06-20T11:08:35.577Z,6.17
2019-06-20T11:11:04.454Z,7.13
2019-06-20T11:13:33.867Z,6.70
2019-06-20T11:16:02.807Z,5.33
2019-06-20T11:18:31.917Z,4.43
2019-06-20T11:21:00.852Z,4.47
2019-06-20T11:23:29.739Z,4.93
2019-06-20T11:25:58.644Z,4.50
2019-06-20T11:28:27.581Z,4.23
2019-06-20T11:31:00.431Z,4.33
2019-06-20T11:33:25.429Z,4.07
2019-06-20T11:35:54.990Z,4.47
2019-06-20T11:38:24.443Z,3.90
2019-06-20T11:40:53.374Z,5.20
2019-06-20T11:43:22.283Z,5.20
2019-06-20T11:45:51.294Z,6.47
2019-06-20T11:48:21.434Z,6.30
2019-06-20T11:50:50.365Z,6.80
2019-06-20T11:53:19.185Z,5.93
2019-06-20T11:55:48.815Z,6.07
2019-06-20T11:58:17.732Z,5.70
2019-06-20T12:01:02.511Z,6.07
2019-06-20T12:03:15.477Z,6.73
2019-06-20T12:05:44.881Z,7.00
2019-06-20T12:08:13.462Z,6.33
2019-06-20T12:10:45.463Z,6.57
2019-06-20T12:13:14.377Z,6.40
2019-06-20T12:15:44.454Z,5.83
2019-06-20T12:18:13.059Z,6.07
2019-06-20T12:20:42.905Z,6.63
2019-06-20T12:23:11.503Z,6.07
2019-06-20T12:25:40.934Z,5.80
2019-06-20T12:28:09.566Z,6.37
2019-06-20T12:30:40.169Z,7.53
2019-06-20T12:33:08.451Z,6.97
2019-06-20T12:35:37.857Z,6.17
2019-06-20T12:38:06.740Z,5.10
2019-06-20T12:40:35.587Z,5.20
2019-06-20T12:43:04.447Z,6.53
2019-06-20T12:45:34.504Z,7.17
2019-06-20T12:48:03.373Z,7.23
2019-06-20T12:50:33.368Z,5.53
2019-06-20T12:53:02.224Z,6.00
2019-06-20T12:55:31.360Z,6.50
2019-06-20T12:58:00.570Z,6.67
2019-06-20T13:00:30.353Z,5.50
2019-06-20T13:02:59.353Z,5.53
2019-06-20T13:05:28.334Z,5.63
2019-06-20T13:07:57.272Z,3.97
2019-06-20T13:10:26.119Z,5.27
2019-06-20T13:12:56.283Z,5.03
2019-06-20T13:15:25.148Z,4.60
2019-06-20T13:17:54.016Z,4.90
2019-06-20T13:20:23.373Z,4.80
2019-06-20T13:22:53.951Z,5.50
2019-06-20T13:25:23.679Z,6.63
2019-06-20T13:27:53.769Z,5.33
2019-06-20T13:30:24.416Z,6.70
2019-06-20T13:32:56.013Z,6.37
2019-06-20T13:35:24.900Z,7.77
2019-06-20T13:37:54.518Z,7.83
2019-06-20T13:40:23.367Z,4.43
2019-06-20T13:42:54.612Z,4.23
2019-06-20T13:45:22.451Z,3.73
2019-06-20T13:47:51.428Z,5.77
2019-06-20T13:50:20.434Z,5.73
2019-06-20T13:52:51.172Z,4.63
2019-06-20T13:55:18.327Z,4.30
2019-06-20T13:57:47.366Z,3.50
2019-06-20T14:00:17.613Z,4.03
2019-06-20T14:02:48.755Z,3.40
2019-06-20T14:05:16.207Z,2.70
2019-06-20T14:07:48.334Z,2.23
2019-06-20T14:10:14.067Z,1.60
2019-06-20T14:12:43.416Z,1.07
2019-06-20T14:15:13.112Z,1.53
2019-06-20T14:17:43.267Z,1.43
2019-06-20T14:20:12.076Z,1.20
2019-06-20T14:22:42.838Z,1.10
2019-06-20T14:25:10.606Z,1.47
2019-06-20T14:27:39.604Z,4.00
2019-06-20T14:30:08.626Z,1.37
2019-06-20T14:32:37.588Z,1.33
2019-06-20T14:35:06.460Z,1.40
2019-06-20T14:37:35.443Z,1.40
2019-06-20T14:40:04.668Z,1.70
2019-06-20T14:42:33.577Z,2.37
2019-06-20T14:45:03.671Z,1.80
2019-06-20T14:47:32.579Z,1.97
2019-06-20T14:50:01.501Z,1.90
2019-06-20T14:52:30.885Z,2.40
2019-06-20T14:54:59.811Z,3.17
2019-06-20T14:57:28.750Z,2.00
2019-06-20T14:59:57.728Z,2.30
2019-06-20T15:02:37.972Z,1.80
2019-06-20T15:04:55.691Z,1.77
2019-06-20T15:07:25.622Z,2.43
2019-06-20T15:09:55.311Z,2.27
2019-06-20T15:12:24.884Z,1.67
2019-06-20T15:14:53.708Z,1.80
2019-06-20T15:17:26.008Z,1.57
2019-06-20T15:19:56.175Z,1.50
2019-06-20T15:22:24.990Z,1.40
2019-06-20T15:24:55.337Z,1.50
2019-06-20T15:27:24.220Z,1.80
2019-06-20T15:29:54.336Z,1.90
2019-06-20T15:32:22.637Z,1.43
2019-06-20T15:34:53.277Z,1.43
2019-06-20T15:37:22.204Z,2.07
2019-06-20T15:39:53.438Z,2.10
2019-06-20T15:42:22.463Z,1.93
2019-06-20T15:44:51.743Z,1.60
2019-06-20T15:47:20.431Z,2.00
2019-06-20T15:49:51.043Z,1.60
2019-06-20T15:52:21.658Z,1.70
2019-06-20T15:54:52.861Z,1.83
2019-06-20T15:57:23.628Z,1.50
2019-06-20T15:59:52.716Z,1.77
2019-06-20T16:02:21.744Z,1.43
2019-06-20T16:04:50.973Z,1.63
2019-06-20T16:07:21.178Z,2.07
2019-06-20T16:09:50.209Z,1.60
2019-06-20T16:12:19.377Z,2.10
2019-06-20T16:14:48.399Z,2.00
2019-06-20T16:17:17.388Z,1.83
2019-06-20T16:19:46.263Z,2.20
2019-06-20T16:22:18.583Z,1.50
2019-06-20T16:24:48.119Z,1.80
2019-06-20T16:27:17.770Z,2.70
2019-06-20T16:29:46.752Z,2.13
2019-06-20T16:32:15.742Z,2.00
2019-06-20T16:34:45.123Z,1.90
2019-06-20T16:37:14.732Z,2.10
2019-06-20T16:39:43.688Z,2.13
2019-06-20T16:42:12.665Z,1.80
2019-06-20T16:44:41.643Z,2.20
2019-06-20T16:47:11.530Z,2.07
2019-06-20T16:49:41.261Z,1.80
2019-06-20T16:52:10.237Z,1.73
2019-06-20T16:54:40.444Z,2.60
2019-06-20T16:57:09.474Z,2.30
2019-06-20T16:59:38.531Z,1.60
2019-06-20T17:02:07.411Z,1.93
2019-06-20T17:04:36.726Z,2.13
2019-06-20T17:07:05.779Z,1.87
2019-06-20T17:09:35.127Z,2.20
2019-06-20T17:12:04.944Z,2.03
2019-06-20T17:14:35.174Z,2.20
2019-06-20T17:17:04.046Z,2.07
2019-06-20T17:19:33.043Z,2.10
2019-06-20T17:22:01.889Z,2.40
2019-06-20T17:24:31.603Z,2.30
2019-06-20T17:27:00.641Z,3.27
2019-06-20T17:29:29.649Z,2.97
2019-06-20T17:31:58.832Z,2.30
2019-06-20T17:34:27.936Z,2.93
2019-06-20T17:36:58.021Z,2.27
2019-06-20T17:39:27.072Z,1.97
2019-06-20T17:41:56.216Z,2.17
2019-06-20T17:44:27.632Z,1.87
2019-06-20T17:46:55.857Z,2.30
2019-06-20T17:49:24.881Z,2.70
2019-06-20T17:51:54.055Z,1.80
2019-06-20T17:54:23.091Z,2.10
2019-06-20T17:56:52.229Z,2.20
2019-06-20T17:59:22.938Z,2.00
2019-06-20T18:01:51.212Z,2.17
2019-06-20T18:04:20.712Z,2.00
2019-06-20T18:06:49.844Z,2.23
2019-06-20T18:09:18.787Z,1.53
2019-06-20T18:11:47.878Z,2.47
2019-06-20T18:14:16.930Z,2.43
2019-06-20T18:16:46.216Z,2.47
2019-06-20T18:19:15.336Z,2.37
2019-06-20T18:21:44.448Z,3.10
2019-06-20T18:24:14.904Z,2.20
2019-06-20T18:26:44.040Z,2.20
2019-06-20T18:29:13.190Z,2.17
2019-06-20T18:31:42.819Z,2.30
2019-06-20T18:34:11.816Z,3.30
2019-06-20T18:36:43.512Z,4.57
2019-06-20T18:39:12.697Z,2.60
2019-06-20T18:41:42.765Z,2.60
2019-06-20T18:44:12.083Z,2.37
2019-06-20T18:46:42.240Z,4.30
2019-06-20T18:49:15.149Z,4.63
2019-06-20T18:51:44.964Z,9.67
2019-06-20T18:54:15.294Z,5.80
2019-06-20T18:56:46.173Z,7.07
2019-06-20T18:59:16.266Z,8.30
2019-06-20T19:01:45.257Z,7.77
2019-06-20T19:04:14.279Z,7.53
2019-06-20T19:06:44.272Z,7.43
2019-06-20T19:09:13.667Z,8.53
2019-06-20T19:11:44.225Z,7.23
2019-06-20T19:14:13.816Z,11.30
2019-06-20T19:16:43.800Z,9.20
2019-06-20T19:19:12.951Z,9.23
2019-06-20T19:21:41.973Z,7.70
2019-06-20T19:24:11.000Z,8.60
2019-06-20T19:26:39.985Z,7.80
2019-06-20T19:29:09.286Z,9.40
2019-06-20T19:31:38.884Z,7.43
2019-06-20T19:34:08.404Z,8.47
2019-06-20T19:36:37.384Z,8.00
2019-06-20T19:39:07.775Z,10.40
2019-06-20T19:41:36.708Z,10.40
2019-06-20T19:44:05.741Z,8.43
2019-06-20T19:46:35.609Z,11.63
2019-06-20T19:49:04.736Z,9.57
2019-06-20T19:51:33.991Z,11.13
2019-06-20T19:54:02.953Z,10.20
2019-06-20T19:56:32.116Z,10.10
2019-06-20T19:59:02.378Z,11.70
2019-06-20T20:01:32.142Z,10.53
2019-06-20T20:04:03.273Z,11.17
2019-06-20T20:06:32.490Z,11.40
2019-06-20T20:09:01.381Z,10.43
2019-06-20T20:11:31.552Z,10.80
2019-06-20T20:14:00.464Z,10.87
2019-06-20T20:16:29.302Z,11.00
2019-06-20T20:18:59.468Z,9.10
2019-06-20T20:21:28.460Z,10.70
2019-06-20T20:23:58.544Z,9.90
2019-06-20T20:26:28.375Z,7.90
2019-06-20T20:29:00.303Z,8.07
2019-06-20T20:31:29.263Z,8.87
2019-06-20T20:33:58.507Z,9.80
2019-06-20T20:36:29.465Z,8.30
2019-06-20T20:38:59.544Z,9.77
2019-06-20T20:41:28.465Z,9.73
2019-06-20T20:43:58.275Z,9.97
2019-06-20T20:46:27.303Z,11.77
2019-06-20T20:48:56.794Z,9.93
2019-06-20T20:51:29.490Z,8.23
2019-06-20T20:53:58.978Z,10.33
2019-06-20T20:56:28.899Z,8.77
2019-06-20T20:59:00.009Z,11.17
2019-06-20T21:01:30.735Z,9.87
2019-06-20T21:04:00.775Z,9.87
2019-06-20T21:06:31.486Z,9.67
2019-06-20T21:09:01.860Z,12.90
2019-06-20T21:11:30.928Z,9.83
2019-06-20T21:13:59.873Z,9.00
2019-06-20T21:16:28.876Z,10.73
2019-06-20T21:18:58.724Z,11.73
2019-06-20T21:21:29.583Z,11.50
2019-06-20T21:23:58.594Z,9.47
2019-06-20T21:26:27.953Z,8.73
2019-06-20T21:28:57.089Z,11.17
2019-06-20T21:31:27.035Z,10.70
2019-06-20T21:33:56.656Z,10.83
2019-06-20T21:36:26.339Z,10.30
2019-06-20T21:38:55.753Z,10.47
2019-06-20T21:41:26.365Z,11.07
2019-06-20T21:43:55.417Z,9.40
2019-06-20T21:46:24.397Z,10.00
2019-06-20T21:48:54.448Z,9.43
2019-06-20T21:51:25.224Z,10.47
2019-06-20T21:53:55.117Z,10.17
2019-06-20T21:56:25.696Z,9.87
2019-06-20T21:58:56.388Z,10.97
2019-06-20T22:01:28.369Z,10.67
2019-06-20T22:03:57.591Z,10.47
2019-06-20T22:06:26.612Z,10.77
2019-06-20T22:08:55.529Z,9.40
2019-06-20T22:11:24.493Z,8.47
2019-06-20T22:13:53.494Z,8.67
2019-06-20T22:16:23.303Z,7.77
2019-06-20T22:18:52.289Z,7.50
2019-06-20T22:21:21.718Z,8.43
2019-06-20T22:23:50.648Z,6.80
2019-06-20T22:26:19.561Z,6.77
2019-06-20T22:28:48.488Z,7.30
2019-06-20T22:31:18.303Z,6.93
2019-06-20T22:33:52.187Z,6.57
2019-06-20T22:36:21.415Z,7.20
2019-06-20T22:38:50.721Z,6.43
2019-06-20T22:41:19.639Z,5.87
2019-06-20T22:43:48.652Z,6.37
2019-06-20T22:46:18.477Z,6.10
2019-06-20T22:48:47.438Z,6.17
2019-06-20T22:51:16.351Z,6.37
2019-06-20T22:53:45.293Z,6.67
2019-06-20T22:56:14.175Z,4.63
2019-06-20T22:58:43.697Z,5.10
2019-06-20T23:01:13.700Z,5.57
2019-06-20T23:03:42.644Z,5.50
2019-06-20T23:06:11.494Z,5.33
2019-06-20T23:08:41.092Z,5.87
2019-06-20T23:11:11.376Z,6.40
2019-06-20T23:13:40.283Z,6.23
2019-06-20T23:16:09.247Z,6.80
2019-06-20T23:18:38.255Z,7.13
2019-06-20T23:21:07.147Z,6.73
2019-06-20T23:23:36.790Z,7.50
2019-06-20T23:26:05.667Z,6.97
2019-06-20T23:28:34.602Z,6.40
2019-06-20T23:31:03.561Z,5.67
2019-06-20T23:33:32.536Z,6.20
2019-06-20T23:36:01.607Z,5.30
2019-06-20T23:38:31.402Z,5.60
2019-06-20T23:41:00.240Z,5.40
2019-06-20T23:43:29.194Z,5.90
2019-06-20T23:45:59.437Z,6.10
2019-06-20T23:48:30.605Z,6.17
2019-06-20T23:50:59.497Z,5.60
2019-06-20T23:53:28.480Z,7.53
2019-06-20T23:55:59.492Z,7.20
2019-06-20T23:58:28.521Z,6.67
